createdAt,value
2023-03-07T00:01:31.545Z,13.52
2023-03-07T00:04:00.316Z,13.45
2023-03-07T00:06:28.824Z,13.47
2023-03-07T00:09:02.267Z,13.46
2023-03-07T00:11:31.030Z,13.47
2023-03-07T00:13:59.316Z,13.39
2023-03-07T00:16:27.641Z,13.32
2023-03-07T00:18:56.608Z,13.31
2023-03-07T00:21:24.957Z,13.32
2023-03-07T00:23:54.072Z,13.28
2023-03-07T00:26:24.407Z,13.21
2023-03-07T00:28:56.931Z,13.15
2023-03-07T00:31:25.368Z,13.11
2023-03-07T00:33:54.123Z,12.99
2023-03-07T00:36:24.039Z,12.96
2023-03-07T00:38:53.112Z,12.94
2023-03-07T00:41:26.794Z,12.90
2023-03-07T00:43:56.338Z,12.78
2023-03-07T00:46:26.339Z,12.67
2023-03-07T00:48:54.704Z,12.65
2023-03-07T00:51:24.479Z,12.60
2023-03-07T00:53:53.374Z,12.50
2023-03-07T00:56:26.726Z,12.43
2023-03-07T00:58:55.001Z,12.37
2023-03-07T01:01:25.936Z,12.30
2023-03-07T01:03:54.785Z,12.23
2023-03-07T01:06:26.212Z,12.20
2023-03-07T01:08:58.822Z,12.21
2023-03-07T01:11:28.635Z,12.20
2023-03-07T01:13:58.596Z,12.16
2023-03-07T01:16:30.114Z,12.15
2023-03-07T01:19:01.934Z,12.10
2023-03-07T01:21:35.527Z,12.06
2023-03-07T01:24:03.831Z,12.00
2023-03-07T01:26:33.482Z,11.97
2023-03-07T01:29:04.468Z,11.88
2023-03-07T01:31:33.363Z,11.85
2023-03-07T01:34:03.043Z,11.82
2023-03-07T01:36:34.170Z,11.72
2023-03-07T01:39:07.975Z,11.65
2023-03-07T01:41:38.420Z,11.61
2023-03-07T01:44:16.923Z,11.58
2023-03-07T01:46:48.522Z,11.48
2023-03-07T01:49:25.411Z,11.46
2023-03-07T01:52:28.887Z,11.43
2023-03-07T01:55:01.172Z,11.38
2023-03-07T01:57:35.456Z,11.31
2023-03-07T02:00:10.694Z,11.24
2023-03-07T02:02:48.938Z,11.19
2023-03-07T02:05:34.220Z,11.11
2023-03-07T02:08:04.088Z,11.07
2023-03-07T02:10:34.120Z,11.02
2023-03-07T02:13:02.356Z,10.95
2023-03-07T02:15:30.840Z,10.89
2023-03-07T02:17:59.981Z,10.84
2023-03-07T02:20:31.232Z,10.82
2023-03-07T02:22:59.593Z,10.75
2023-03-07T02:25:34.301Z,10.67
2023-03-07T02:28:02.471Z,10.62
2023-03-07T02:30:30.677Z,10.57
2023-03-07T02:32:59.080Z,10.47
2023-03-07T02:35:27.488Z,10.45
2023-03-07T02:37:59.342Z,10.40
2023-03-07T02:40:32.535Z,10.35
2023-03-07T02:43:10.411Z,10.29
2023-03-07T02:45:38.656Z,10.25
2023-03-07T02:48:07.088Z,10.20
2023-03-07T02:50:36.308Z,10.16
2023-03-07T02:53:04.617Z,10.12
2023-03-07T02:55:34.219Z,10.10
2023-03-07T02:58:02.437Z,10.09
2023-03-07T03:00:31.313Z,10.05
2023-03-07T03:02:59.639Z,10.01
2023-03-07T03:05:27.871Z,9.96
2023-03-07T03:07:56.230Z,9.94
2023-03-07T03:10:24.517Z,9.94
2023-03-07T03:12:52.737Z,9.92
2023-03-07T03:15:21.437Z,9.85
2023-03-07T03:17:50.545Z,9.78
2023-03-07T03:20:20.068Z,9.74
2023-03-07T03:22:48.400Z,9.71
2023-03-07T03:25:17.964Z,9.68
2023-03-07T03:27:46.214Z,9.65
2023-03-07T03:30:15.110Z,9.59
2023-03-07T03:32:44.574Z,9.54
2023-03-07T03:35:13.046Z,9.48
2023-03-07T03:37:41.766Z,9.44
2023-03-07T03:40:15.114Z,9.42
2023-03-07T03:42:44.448Z,9.39
2023-03-07T03:45:15.601Z,9.36
2023-03-07T03:47:43.969Z,9.33
2023-03-07T03:50:12.685Z,9.29
2023-03-07T03:52:40.958Z,9.27
2023-03-07T03:55:09.492Z,9.26
2023-03-07T03:57:37.720Z,9.24
2023-03-07T04:00:09.788Z,9.18
2023-03-07T04:02:38.154Z,9.15
2023-03-07T04:05:06.753Z,9.06
2023-03-07T04:07:36.287Z,8.95
2023-03-07T04:10:06.011Z,8.90
2023-03-07T04:12:34.939Z,8.88
2023-03-07T04:15:03.210Z,8.87
2023-03-07T04:17:31.444Z,8.84
2023-03-07T04:19:59.618Z,8.82
2023-03-07T04:22:29.177Z,8.81
2023-03-07T04:24:57.388Z,8.82
2023-03-07T04:27:25.576Z,8.82
2023-03-07T04:29:53.733Z,8.85
2023-03-07T04:32:21.983Z,8.83
2023-03-07T04:34:50.503Z,8.83
2023-03-07T04:37:18.788Z,8.82
2023-03-07T04:39:49.649Z,8.81
2023-03-07T04:42:17.840Z,8.83
2023-03-07T04:44:46.110Z,8.82
2023-03-07T04:47:15.318Z,8.84
2023-03-07T04:49:43.687Z,8.86
2023-03-07T04:52:11.873Z,8.83
2023-03-07T04:54:41.678Z,8.80
2023-03-07T04:57:09.860Z,8.77
2023-03-07T04:59:40.122Z,8.73
2023-03-07T05:02:09.544Z,8.69
2023-03-07T05:04:37.792Z,8.70
2023-03-07T05:07:06.353Z,8.68
2023-03-07T05:09:34.653Z,8.67
2023-03-07T05:12:02.868Z,8.66
2023-03-07T05:14:31.105Z,8.70
2023-03-07T05:16:59.307Z,8.68
2023-03-07T05:19:27.854Z,8.66
2023-03-07T05:21:56.017Z,8.61
2023-03-07T05:24:24.268Z,8.62
2023-03-07T05:26:52.479Z,8.60
2023-03-07T05:29:20.739Z,8.56
2023-03-07T05:31:49.122Z,8.49
2023-03-07T05:34:17.797Z,8.42
2023-03-07T05:36:46.022Z,8.37
2023-03-07T05:39:16.342Z,8.31
2023-03-07T05:41:44.624Z,8.30
2023-03-07T05:44:12.877Z,8.32
2023-03-07T05:46:41.432Z,8.30
2023-03-07T05:49:10.076Z,8.28
2023-03-07T05:51:38.275Z,8.30
2023-03-07T05:54:06.653Z,8.30
2023-03-07T05:56:34.848Z,8.27
2023-03-07T05:59:03.035Z,8.30
2023-03-07T06:01:31.234Z,8.28
2023-03-07T06:03:59.452Z,8.29
2023-03-07T06:06:27.817Z,8.32
2023-03-07T06:08:56.175Z,8.34
2023-03-07T06:11:24.588Z,8.37
2023-03-07T06:13:53.019Z,8.43
2023-03-07T06:16:21.220Z,8.43
2023-03-07T06:18:50.214Z,8.39
2023-03-07T06:21:19.544Z,8.42
2023-03-07T06:23:48.544Z,8.46
2023-03-07T06:26:17.056Z,8.49
2023-03-07T06:28:45.320Z,8.53
2023-03-07T06:31:16.165Z,8.61
2023-03-07T06:33:45.408Z,8.62
2023-03-07T06:36:16.529Z,8.66
2023-03-07T06:38:45.108Z,8.69
2023-03-07T06:41:13.622Z,8.70
2023-03-07T06:43:42.061Z,8.71
2023-03-07T06:46:10.320Z,8.70
2023-03-07T06:48:38.707Z,8.74
2023-03-07T06:51:11.421Z,8.73
2023-03-07T06:53:39.679Z,8.71
2023-03-07T06:56:08.112Z,8.69
2023-03-07T06:58:36.310Z,8.67
2023-03-07T07:01:04.531Z,8.70
2023-03-07T07:03:32.761Z,8.73
2023-03-07T07:06:00.931Z,8.73
2023-03-07T07:08:29.109Z,8.74
2023-03-07T07:11:00.308Z,8.75
2023-03-07T07:13:28.554Z,8.72
2023-03-07T07:15:56.824Z,8.67
2023-03-07T07:18:25.025Z,8.67
2023-03-07T07:20:56.904Z,8.69
2023-03-07T07:23:25.934Z,8.59
2023-03-07T07:25:54.588Z,8.60
2023-03-07T07:28:22.985Z,8.59
2023-03-07T07:30:52.364Z,8.57
2023-03-07T07:33:21.664Z,8.57
2023-03-07T07:35:50.390Z,8.58
2023-03-07T07:38:18.657Z,8.57
2023-03-07T07:40:46.922Z,8.59
2023-03-07T07:43:19.363Z,8.58
2023-03-07T07:45:47.745Z,8.57
2023-03-07T07:48:15.998Z,8.58
2023-03-07T07:50:44.216Z,8.55
2023-03-07T07:53:12.578Z,8.52
2023-03-07T07:55:40.979Z,8.48
2023-03-07T07:58:09.305Z,8.41
2023-03-07T08:00:39.353Z,8.43
2023-03-07T08:03:09.348Z,8.44
2023-03-07T08:05:37.585Z,8.40
2023-03-07T08:08:06.000Z,8.41
2023-03-07T08:10:34.542Z,8.39
2023-03-07T08:13:02.751Z,8.33
2023-03-07T08:15:30.980Z,8.28
2023-03-07T08:17:59.964Z,8.22
2023-03-07T08:20:28.206Z,8.13
2023-03-07T08:22:56.882Z,8.15
2023-03-07T08:25:26.123Z,8.20
2023-03-07T08:27:55.962Z,8.15
2023-03-07T08:30:25.901Z,8.08
2023-03-07T08:32:56.088Z,8.09
2023-03-07T08:35:25.817Z,8.15
2023-03-07T08:38:02.509Z,8.18
2023-03-07T08:40:32.278Z,8.19
2023-03-07T08:43:00.915Z,8.24
2023-03-07T08:45:29.146Z,8.23
2023-03-07T08:47:57.932Z,8.23
2023-03-07T08:50:29.335Z,8.22
2023-03-07T08:52:58.516Z,8.14
2023-03-07T08:55:26.751Z,8.08
2023-03-07T08:57:55.096Z,8.07
2023-03-07T09:00:23.514Z,8.04
2023-03-07T09:02:51.770Z,8.09
2023-03-07T09:05:20.309Z,8.00
2023-03-07T09:07:48.500Z,7.96
2023-03-07T09:10:18.121Z,7.92
2023-03-07T09:12:46.505Z,7.91
2023-03-07T09:15:14.995Z,7.90
2023-03-07T09:17:43.173Z,7.91
2023-03-07T09:20:12.756Z,7.95
2023-03-07T09:22:41.171Z,8.00
2023-03-07T09:25:09.829Z,8.07
2023-03-07T09:27:38.062Z,8.13
2023-03-07T09:30:06.841Z,8.19
2023-03-07T09:32:35.075Z,8.21
2023-03-07T09:35:03.299Z,8.23
2023-03-07T09:37:31.526Z,8.24
2023-03-07T09:40:00.521Z,8.25
2023-03-07T09:42:28.662Z,8.30
2023-03-07T09:45:04.857Z,8.30
2023-03-07T09:47:49.945Z,8.32
2023-03-07T09:50:37.879Z,8.34
2023-03-07T09:53:06.609Z,8.32
2023-03-07T09:55:34.992Z,8.33
2023-03-07T09:58:12.524Z,8.32
2023-03-07T10:00:43.967Z,8.31
2023-03-07T10:03:39.318Z,8.31
2023-03-07T10:06:31.399Z,8.30
2023-03-07T10:09:01.783Z,8.30
2023-03-07T10:12:04.826Z,8.25
2023-03-07T10:14:41.751Z,8.28
2023-03-07T10:17:51.217Z,8.26
2023-03-07T10:20:31.795Z,8.22
2023-03-07T10:23:22.836Z,8.17
2023-03-07T10:25:53.981Z,8.19
2023-03-07T10:28:27.924Z,8.16
2023-03-07T10:31:02.250Z,8.16
2023-03-07T10:33:31.982Z,8.17
2023-03-07T10:36:08.417Z,8.14
2023-03-07T10:38:44.891Z,8.14
2023-03-07T10:41:18.358Z,8.10
2023-03-07T10:43:47.639Z,8.05
2023-03-07T10:46:26.240Z,7.96
2023-03-07T10:49:10.173Z,7.92
2023-03-07T10:51:45.292Z,7.91
2023-03-07T10:54:18.076Z,7.85
2023-03-07T10:57:04.120Z,7.82
2023-03-07T10:59:32.958Z,7.83
2023-03-07T11:02:02.882Z,7.83
2023-03-07T11:04:45.959Z,7.79
2023-03-07T11:07:35.247Z,7.79
2023-03-07T11:10:26.300Z,7.80
2023-03-07T11:12:57.477Z,7.82
2023-03-07T11:15:27.029Z,7.77
2023-03-07T11:17:55.311Z,7.70
2023-03-07T11:20:48.604Z,7.67
2023-03-07T11:23:26.889Z,7.65
2023-03-07T11:25:57.059Z,7.67
2023-03-07T11:28:32.244Z,7.71
2023-03-07T11:31:35.378Z,7.73
2023-03-07T11:34:33.120Z,7.72
2023-03-07T11:37:30.155Z,7.75
2023-03-07T11:40:29.777Z,7.75
2023-03-07T11:43:20.948Z,7.76
2023-03-07T11:45:55.995Z,7.82
2023-03-07T11:48:43.782Z,7.88
2023-03-07T11:51:44.058Z,7.93
2023-03-07T11:54:30.010Z,7.95
2023-03-07T11:57:09.059Z,7.93
2023-03-07T12:00:15.412Z,7.91
2023-03-07T12:03:04.407Z,7.87
2023-03-07T12:05:56.272Z,7.82
2023-03-07T12:08:45.551Z,7.76
2023-03-07T12:11:41.107Z,7.73
2023-03-07T12:14:17.050Z,7.72
2023-03-07T12:17:19.022Z,7.75
2023-03-07T12:20:04.201Z,7.77
2023-03-07T12:22:37.998Z,7.78
2023-03-07T12:25:27.496Z,7.76
2023-03-07T12:27:58.660Z,7.73
2023-03-07T12:30:38.691Z,7.70
2023-03-07T12:33:08.267Z,7.69
2023-03-07T12:35:50.689Z,7.65
2023-03-07T12:38:24.768Z,7.63
2023-03-07T12:41:02.588Z,7.61
2023-03-07T12:43:42.149Z,7.60
2023-03-07T12:46:34.363Z,7.57
2023-03-07T12:49:32.267Z,7.51
2023-03-07T12:52:10.454Z,7.50
2023-03-07T12:54:40.377Z,7.50
2023-03-07T12:57:26.854Z,7.48
2023-03-07T13:00:00.860Z,7.46
2023-03-07T13:02:33.261Z,7.43
2023-03-07T13:05:03.121Z,7.42
2023-03-07T13:07:34.361Z,7.45
2023-03-07T13:10:07.182Z,7.47
2023-03-07T13:12:39.391Z,7.46
2023-03-07T13:15:28.720Z,7.36
2023-03-07T13:17:58.850Z,7.27
2023-03-07T13:20:29.820Z,7.22
2023-03-07T13:23:00.887Z,7.18
2023-03-07T13:25:49.673Z,7.11
2023-03-07T13:28:47.441Z,7.07
2023-03-07T13:31:18.584Z,7.05
2023-03-07T13:33:47.589Z,7.00
2023-03-07T13:36:35.901Z,6.98
2023-03-07T13:39:04.685Z,6.95
2023-03-07T13:41:48.629Z,6.96
2023-03-07T13:44:41.743Z,6.96
2023-03-07T13:47:48.375Z,6.95
2023-03-07T13:50:35.339Z,6.92
2023-03-07T13:53:26.554Z,6.93
2023-03-07T13:56:16.291Z,6.93
2023-03-07T13:59:11.725Z,6.84
2023-03-07T14:01:58.690Z,6.74
2023-03-07T14:04:40.310Z,6.71
2023-03-07T14:07:22.134Z,6.73
2023-03-07T14:09:55.344Z,6.70
2023-03-07T14:12:35.337Z,6.65
2023-03-07T14:15:39.968Z,6.59
2023-03-07T14:18:49.671Z,6.56
2023-03-07T14:21:23.837Z,6.55
2023-03-07T14:24:29.940Z,6.55
2023-03-07T14:27:05.355Z,6.51
2023-03-07T14:29:33.805Z,6.49
2023-03-07T14:32:02.179Z,6.44
2023-03-07T14:34:35.932Z,6.43
2023-03-07T14:37:14.152Z,6.42
2023-03-07T14:39:59.174Z,6.44
2023-03-07T14:42:59.032Z,6.40
2023-03-07T14:46:07.788Z,6.39
2023-03-07T14:48:41.560Z,6.39
2023-03-07T14:51:20.016Z,6.44
2023-03-07T14:53:48.953Z,6.49
2023-03-07T14:56:37.762Z,6.50
2023-03-07T14:59:07.670Z,6.53
2023-03-07T15:01:39.779Z,6.53
2023-03-07T15:04:29.828Z,6.57
2023-03-07T15:07:00.903Z,6.60
2023-03-07T15:09:30.462Z,6.62
2023-03-07T15:12:15.736Z,6.66
2023-03-07T15:14:56.062Z,6.68
2023-03-07T15:17:29.062Z,6.62
2023-03-07T15:20:10.662Z,6.60
2023-03-07T15:22:42.543Z,6.67
2023-03-07T15:25:26.044Z,6.72
2023-03-07T15:28:05.319Z,6.77
2023-03-07T15:30:39.210Z,6.85
2023-03-07T15:33:20.893Z,6.95
2023-03-07T15:36:28.050Z,7.04
2023-03-07T15:39:25.229Z,7.12
2023-03-07T15:42:05.045Z,7.18
2023-03-07T15:44:34.551Z,7.27
2023-03-07T15:47:14.535Z,7.34
2023-03-07T15:49:55.160Z,7.44
2023-03-07T15:52:37.398Z,7.57
2023-03-07T15:55:17.284Z,7.69
2023-03-07T15:57:51.786Z,7.78
2023-03-07T16:00:25.316Z,7.85
2023-03-07T16:02:55.149Z,7.95
2023-03-07T16:05:26.270Z,8.06
2023-03-07T16:07:56.831Z,8.10
2023-03-07T16:10:31.786Z,8.16
2023-03-07T16:13:01.799Z,8.26
2023-03-07T16:15:30.447Z,8.33
2023-03-07T16:17:59.578Z,8.39
2023-03-07T16:20:30.147Z,8.49
2023-03-07T16:22:58.795Z,8.56
2023-03-07T16:25:31.605Z,8.65
2023-03-07T16:28:00.366Z,8.69
2023-03-07T16:30:30.461Z,8.74
2023-03-07T16:32:58.797Z,8.80
2023-03-07T16:35:29.524Z,8.89
2023-03-07T16:37:57.912Z,8.94
2023-03-07T16:40:27.059Z,8.98
2023-03-07T16:42:55.611Z,9.03
2023-03-07T16:45:29.448Z,9.09
2023-03-07T16:48:03.209Z,9.11
2023-03-07T16:50:34.342Z,9.17
2023-03-07T16:53:02.551Z,9.26
2023-03-07T16:55:30.798Z,9.31
2023-03-07T16:58:05.304Z,9.35
2023-03-07T17:00:34.141Z,9.36
2023-03-07T17:03:04.613Z,9.39
2023-03-07T17:05:32.847Z,9.45
2023-03-07T17:08:01.122Z,9.53
2023-03-07T17:10:29.813Z,9.59
2023-03-07T17:13:00.678Z,9.61
2023-03-07T17:15:33.033Z,9.64
2023-03-07T17:18:02.251Z,9.62
2023-03-07T17:20:30.944Z,9.55
2023-03-07T17:22:59.865Z,9.62
2023-03-07T17:25:29.487Z,9.68
2023-03-07T17:28:14.629Z,9.76
2023-03-07T17:30:45.820Z,9.86
2023-03-07T17:33:15.780Z,9.93
2023-03-07T17:35:44.287Z,9.95
2023-03-07T17:38:12.619Z,10.00
2023-03-07T17:40:40.879Z,10.10
2023-03-07T17:43:09.117Z,10.20
2023-03-07T17:45:39.920Z,10.29
2023-03-07T17:48:08.393Z,10.35
2023-03-07T17:50:37.305Z,10.37
2023-03-07T17:53:05.495Z,10.43
2023-03-07T17:55:33.893Z,10.46
2023-03-07T17:58:02.278Z,10.43
2023-03-07T18:00:30.621Z,10.44
2023-03-07T18:02:59.045Z,10.45
2023-03-07T18:05:28.709Z,10.49
2023-03-07T18:07:57.602Z,10.44
2023-03-07T18:10:26.173Z,10.48
2023-03-07T18:12:54.544Z,10.56
2023-03-07T18:15:23.970Z,10.64
2023-03-07T18:17:52.737Z,10.73
2023-03-07T18:20:22.304Z,10.77
2023-03-07T18:22:50.832Z,10.88
2023-03-07T18:25:20.071Z,10.94
2023-03-07T18:27:48.849Z,11.03
2023-03-07T18:30:17.688Z,11.09
2023-03-07T18:32:46.122Z,11.16
2023-03-07T18:35:16.462Z,11.25
2023-03-07T18:37:45.364Z,11.31
2023-03-07T18:40:15.028Z,11.35
2023-03-07T18:42:43.550Z,11.49
2023-03-07T18:45:12.652Z,11.64
2023-03-07T18:47:40.940Z,11.69
2023-03-07T18:50:10.262Z,11.73
2023-03-07T18:52:38.568Z,11.66
2023-03-07T18:55:07.137Z,11.65
2023-03-07T18:57:35.355Z,11.65
2023-03-07T19:00:04.848Z,11.69
2023-03-07T19:02:33.796Z,11.71
2023-03-07T19:05:02.249Z,11.71
2023-03-07T19:07:32.137Z,11.74
2023-03-07T19:10:00.396Z,11.77
2023-03-07T19:12:28.691Z,11.78
2023-03-07T19:14:57.064Z,11.77
2023-03-07T19:17:26.230Z,11.78
2023-03-07T19:19:59.867Z,11.82
2023-03-07T19:22:31.315Z,11.85
2023-03-07T19:24:59.608Z,11.84
2023-03-07T19:27:28.879Z,11.87
2023-03-07T19:29:57.274Z,11.92
2023-03-07T19:32:25.630Z,11.97
2023-03-07T19:34:53.921Z,12.01
2023-03-07T19:37:22.197Z,12.13
2023-03-07T19:39:54.285Z,12.36
2023-03-07T19:42:23.137Z,12.48
2023-03-07T19:44:51.742Z,12.48
2023-03-07T19:47:20.016Z,12.51
2023-03-07T19:49:49.016Z,12.61
2023-03-07T19:52:17.567Z,12.81
2023-03-07T19:54:46.359Z,13.02
2023-03-07T19:57:16.882Z,13.16
2023-03-07T19:59:45.464Z,13.24
2023-03-07T20:02:15.313Z,13.34
2023-03-07T20:04:43.677Z,13.49
2023-03-07T20:07:11.974Z,13.62
2023-03-07T20:09:40.276Z,13.74
2023-03-07T20:12:10.983Z,13.70
2023-03-07T20:14:43.597Z,13.67
2023-03-07T20:17:13.084Z,13.53
2023-03-07T20:19:41.397Z,13.40
2023-03-07T20:22:09.729Z,13.25
2023-03-07T20:24:38.021Z,13.01
2023-03-07T20:27:06.328Z,12.89
2023-03-07T20:29:34.695Z,12.91
2023-03-07T20:32:03.227Z,13.04
2023-03-07T20:34:31.528Z,13.20
2023-03-07T20:36:59.737Z,13.25
2023-03-07T20:39:28.081Z,13.34
2023-03-07T20:41:56.375Z,13.46
2023-03-07T20:44:24.631Z,13.50
2023-03-07T20:46:53.154Z,13.61
2023-03-07T20:49:21.457Z,13.81
2023-03-07T20:51:50.496Z,13.93
2023-03-07T20:54:19.735Z,13.97
2023-03-07T20:56:48.704Z,14.03
2023-03-07T20:59:20.229Z,14.13
2023-03-07T21:01:49.998Z,14.20
2023-03-07T21:04:21.218Z,14.16
2023-03-07T21:06:50.317Z,14.19
2023-03-07T21:09:19.609Z,14.32
2023-03-07T21:11:50.870Z,14.50
2023-03-07T21:14:20.470Z,14.46
2023-03-07T21:16:49.301Z,14.53
2023-03-07T21:19:18.086Z,14.62
2023-03-07T21:21:46.631Z,14.80
2023-03-07T21:24:16.413Z,15.00
2023-03-07T21:26:44.828Z,15.10
2023-03-07T21:29:14.740Z,15.08
2023-03-07T21:31:43.041Z,14.83
2023-03-07T21:34:14.929Z,14.54
2023-03-07T21:36:43.278Z,14.29
2023-03-07T21:39:12.696Z,14.15
2023-03-07T21:41:41.383Z,14.03
2023-03-07T21:44:10.748Z,14.49
2023-03-07T21:46:39.017Z,15.02
2023-03-07T21:49:07.246Z,15.54
2023-03-07T21:51:35.469Z,15.96
2023-03-07T21:54:03.697Z,16.26
2023-03-07T21:56:31.922Z,16.40
2023-03-07T21:59:00.136Z,16.64
2023-03-07T22:01:30.170Z,16.72
2023-03-07T22:04:00.346Z,16.71
2023-03-07T22:06:29.766Z,16.71
2023-03-07T22:09:00.294Z,16.94
2023-03-07T22:11:28.938Z,16.69
2023-03-07T22:13:57.154Z,16.03
2023-03-07T22:16:26.041Z,15.35
2023-03-07T22:18:56.798Z,14.94
2023-03-07T22:21:28.730Z,14.72
2023-03-07T22:24:01.695Z,14.76
2023-03-07T22:26:31.958Z,15.04
2023-03-07T22:29:01.720Z,15.09
2023-03-07T22:31:30.256Z,15.19
2023-03-07T22:34:00.906Z,15.48
2023-03-07T22:36:29.202Z,15.30
2023-03-07T22:38:57.604Z,15.70
2023-03-07T22:41:27.260Z,16.01
2023-03-07T22:43:55.911Z,15.78
2023-03-07T22:46:24.523Z,15.14
2023-03-07T22:48:54.695Z,15.02
2023-03-07T22:51:25.052Z,14.80
2023-03-07T22:53:54.488Z,14.55
2023-03-07T22:56:28.007Z,14.33
2023-03-07T22:58:56.909Z,14.16
2023-03-07T23:01:28.260Z,13.98
2023-03-07T23:03:58.402Z,13.95
2023-03-07T23:06:30.383Z,13.89
2023-03-07T23:09:00.497Z,13.78
2023-03-07T23:11:30.807Z,13.66
2023-03-07T23:13:59.536Z,13.60
2023-03-07T23:16:30.980Z,13.39
2023-03-07T23:19:00.586Z,13.25
2023-03-07T23:21:32.060Z,13.18
2023-03-07T23:24:01.391Z,13.16
2023-03-07T23:26:35.702Z,13.07
2023-03-07T23:29:06.156Z,13.04
2023-03-07T23:31:38.320Z,13.01
2023-03-07T23:34:09.940Z,12.98
2023-03-07T23:36:38.450Z,12.94
2023-03-07T23:39:06.650Z,12.93
2023-03-07T23:41:35.236Z,12.93
2023-03-07T23:44:04.021Z,12.93
2023-03-07T23:46:32.370Z,13.00
2023-03-07T23:49:00.705Z,13.04
2023-03-07T23:51:31.281Z,13.06
2023-03-07T23:53:59.521Z,12.99
2023-03-07T23:56:27.775Z,12.93
2023-03-07T23:58:56.061Z,12.87
